sensor_id;sensor_type;location;lat;lon;timestamp;P1;durP1;ratioP1;P2;durP2;ratioP2
22308;SDS011;11322;50.858;-1.778;2023-01-15T00:00:34;0.3;;;0.3;;
22308;SDS011;11322;50.858;-1.778;2023-01-15T00:05:34;1.35;;;0.5;;
22308;SDS011;11322;50.858;-1.778;2023-01-15T00:10:34;1.15;;;0.3;;
22308;SDS011;11322;50.858;-1.778;2023-01-15T00:15:34;4.45;;;0.65;;
22308;SDS011;11322;50.858;-1.778;2023-01-15T00:20:34;0.2;;;0.2;;
22308;SDS011;11322;50.858;-1.778;2023-01-15T00:25:34;0.15;;;0.15;;
22308;SDS011;11322;50.858;-1.778;2023-01-15T00:30:34;0.65;;;0.65;;
22308;SDS011;11322;50.858;-1.778;2023-01-15T00:35:34;0.25;;;0.25;;
22308;SDS011;11322;50.858;-1.778;2023-01-15T00:40:34;0.15;;;0.15;;
22308;SDS011;11322;50.858;-1.778;2023-01-15T00:45:34;0.35;;;0.35;;
22308;SDS011;11322;50.858;-1.778;2023-01-15T00:50:34;0.1;;;0.1;;
22308;SDS011;11322;50.858;-1.778;2023-01-15T00:55:34;0.75;;;0.65;;
22308;SDS011;11322;50.858;-1.778;2023-01-15T01:00:34;3.1;;;0.5;;
22308;SDS011;11322;50.858;-1.778;2023-01-15T01:05:34;1.05;;;0.6;;
22308;SDS011;11322;50.858;-1.778;2023-01-15T01:10:34;0.2;;;0.2;;
22308;SDS011;11322;50.858;-1.778;2023-01-15T01:15:34;0.1;;;0.1;;
22308;SDS011;11322;50.858;-1.778;2023-01-15T01:20:34;0.25;;;0.25;;
22308;SDS011;11322;50.858;-1.778;2023-01-15T01:25:34;0.1;;;0.1;;
22308;SDS011;11322;50.858;-1.778;2023-01-15T01:30:34;0.3;;;0.3;;
22308;SDS011;11322;50.858;-1.778;2023-01-15T01:35:34;0.1;;;0.1;;
22308;SDS011;11322;50.858;-1.778;2023-01-15T01:40:34;2.5;;;0.9;;
22308;SDS011;11322;50.858;-1.778;2023-01-15T01:45:34;4.75;;;0.5;;
22308;SDS011;11322;50.858;-1.778;2023-01-15T01:50:34;0.95;;;0.25;;
22308;SDS011;11322;50.858;-1.778;2023-01-15T01:55:34;0.1;;;0.1;;
22308;SDS011;11322;50.858;-1.778;2023-01-15T02:00:34;0.8;;;0.75;;
22308;SDS011;11322;50.858;-1.778;2023-01-15T02:05:34;0.1;;;0.1;;
22308;SDS011;11322;50.858;-1.778;2023-01-15T02:10:34;2.9;;;1.3;;
22308;SDS011;11322;50.858;-1.778;2023-01-15T02:15:34;0.45;;;0.25;;
22308;SDS011;11322;50.858;-1.778;2023-01-15T02:20:35;4.0;;;1.15;;
22308;SDS011;11322;50.858;-1.778;2023-01-15T02:25:38;0.25;;;0.2;;
22308;SDS011;11322;50.858;-1.778;2023-01-15T02:30:34;1.0;;;0.2;;
22308;SDS011;11322;50.858;-1.778;2023-01-15T02:35:35;0.15;;;0.15;;
22308;SDS011;11322;50.858;-1.778;2023-01-15T02:40:34;0.1;;;0.1;;
22308;SDS011;11322;50.858;-1.778;2023-01-15T02:45:35;9.1;;;0.55;;
22308;SDS011;11322;50.858;-1.778;2023-01-15T02:50:35;0.0;;;0.0;;
22308;SDS011;11322;50.858;-1.778;2023-01-15T02:55:34;0.2;;;0.2;;
22308;SDS011;11322;50.858;-1.778;2023-01-15T03:00:34;0.1;;;0.1;;
22308;SDS011;11322;50.858;-1.778;2023-01-15T03:05:35;0.1;;;0.1;;
22308;SDS011;11322;50.858;-1.778;2023-01-15T03:10:36;0.1;;;0.1;;
22308;SDS011;11322;50.858;-1.778;2023-01-15T03:15:37;0.1;;;0.1;;
22308;SDS011;11322;50.858;-1.778;2023-01-15T03:20:34;0.9;;;0.9;;
22308;SDS011;11322;50.858;-1.778;2023-01-15T03:25:35;0.5;;;0.5;;
22308;SDS011;11322;50.858;-1.778;2023-01-15T03:30:34;0.1;;;0.1;;
22308;SDS011;11322;50.858;-1.778;2023-01-15T03:35:43;0.1;;;0.1;;
22308;SDS011;11322;50.858;-1.778;2023-01-15T03:40:34;0.3;;;0.3;;
22308;SDS011;11322;50.858;-1.778;2023-01-15T03:45:34;0.1;;;0.1;;
22308;SDS011;11322;50.858;-1.778;2023-01-15T03:50:35;0.1;;;0.1;;
22308;SDS011;11322;50.858;-1.778;2023-01-15T03:55:36;0.4;;;0.3;;
22308;SDS011;11322;50.858;-1.778;2023-01-15T04:00:35;0.1;;;0.1;;
22308;SDS011;11322;50.858;-1.778;2023-01-15T04:05:34;0.1;;;0.1;;
22308;SDS011;11322;50.858;-1.778;2023-01-15T04:10:34;0.1;;;0.1;;
22308;SDS011;11322;50.858;-1.778;2023-01-15T04:15:34;0.3;;;0.3;;
22308;SDS011;11322;50.858;-1.778;2023-01-15T04:20:34;0.25;;;0.2;;
22308;SDS011;11322;50.858;-1.778;2023-01-15T04:25:34;0.1;;;0.1;;
22308;SDS011;11322;50.858;-1.778;2023-01-15T04:30:34;0.6;;;0.4;;
22308;SDS011;11322;50.858;-1.778;2023-01-15T04:35:34;0.1;;;0.1;;
22308;SDS011;11322;50.858;-1.778;2023-01-15T04:40:34;0.3;;;0.1;;
22308;SDS011;11322;50.858;-1.778;2023-01-15T04:45:34;0.1;;;0.1;;
22308;SDS011;11322;50.858;-1.778;2023-01-15T04:50:34;0.1;;;0.1;;
22308;SDS011;11322;50.858;-1.778;2023-01-15T04:55:34;2.15;;;0.7;;
22308;SDS011;11322;50.858;-1.778;2023-01-15T05:00:34;0.1;;;0.1;;
22308;SDS011;11322;50.858;-1.778;2023-01-15T05:05:34;0.1;;;0.1;;
22308;SDS011;11322;50.858;-1.778;2023-01-15T05:10:34;0.0;;;0.0;;
22308;SDS011;11322;50.858;-1.778;2023-01-15T05:15:34;0.1;;;0.1;;
22308;SDS011;11322;50.858;-1.778;2023-01-15T05:20:35;0.35;;;0.35;;
22308;SDS011;11322;50.858;-1.778;2023-01-15T05:25:35;4.9;;;0.2;;
22308;SDS011;11322;50.858;-1.778;2023-01-15T05:30:34;0.45;;;0.45;;
22308;SDS011;11322;50.858;-1.778;2023-01-15T05:35:34;0.75;;;0.75;;
22308;SDS011;11322;50.858;-1.778;2023-01-15T05:40:34;0.1;;;0.1;;
22308;SDS011;11322;50.858;-1.778;2023-01-15T05:45:34;0.5;;;0.2;;
22308;SDS011;11322;50.858;-1.778;2023-01-15T05:50:34;0.1;;;0.1;;
22308;SDS011;11322;50.858;-1.778;2023-01-15T05:55:34;0.2;;;0.2;;
22308;SDS011;11322;50.858;-1.778;2023-01-15T06:00:34;0.1;;;0.1;;
22308;SDS011;11322;50.858;-1.778;2023-01-15T06:05:34;0.1;;;0.1;;
22308;SDS011;11322;50.858;-1.778;2023-01-15T06:10:34;0.1;;;0.1;;
22308;SDS011;11322;50.858;-1.778;2023-01-15T06:15:34;0.5;;;0.5;;
22308;SDS011;11322;50.858;-1.778;2023-01-15T06:20:34;0.8;;;0.45;;
22308;SDS011;11322;50.858;-1.778;2023-01-15T06:20:36;0.8;;;0.45;;
22308;SDS011;11322;50.858;-1.778;2023-01-15T06:25:34;0.1;;;0.1;;
22308;SDS011;11322;50.858;-1.778;2023-01-15T06:30:34;0.0;;;0.0;;
22308;SDS011;11322;50.858;-1.778;2023-01-15T06:35:34;0.1;;;0.1;;
22308;SDS011;11322;50.858;-1.778;2023-01-15T06:40:34;0.25;;;0.25;;
22308;SDS011;11322;50.858;-1.778;2023-01-15T06:45:35;0.1;;;0.1;;
22308;SDS011;11322;50.858;-1.778;2023-01-15T06:50:34;0.1;;;0.1;;
22308;SDS011;11322;50.858;-1.778;2023-01-15T06:55:34;6.55;;;0.8;;
22308;SDS011;11322;50.858;-1.778;2023-01-15T07:00:34;0.45;;;0.45;;
22308;SDS011;11322;50.858;-1.778;2023-01-15T07:05:34;0.25;;;0.25;;
22308;SDS011;11322;50.858;-1.778;2023-01-15T07:10:34;0.8;;;0.65;;
22308;SDS011;11322;50.858;-1.778;2023-01-15T07:15:34;2.2;;;0.55;;
22308;SDS011;11322;50.858;-1.778;2023-01-15T07:20:34;1.65;;;0.7;;
22308;SDS011;11322;50.858;-1.778;2023-01-15T07:25:34;0.0;;;0.0;;
22308;SDS011;11322;50.858;-1.778;2023-01-15T07:30:34;1.95;;;0.6;;
22308;SDS011;11322;50.858;-1.778;2023-01-15T07:35:34;0.6;;;0.5;;
22308;SDS011;11322;50.858;-1.778;2023-01-15T07:40:34;4.8;;;0.5;;
22308;SDS011;11322;50.858;-1.778;2023-01-15T07:45:34;0.1;;;0.1;;
22308;SDS011;11322;50.858;-1.778;2023-01-15T07:50:58;0.5;;;0.45;;
22308;SDS011;11322;50.858;-1.778;2023-01-15T07:55:35;0.1;;;0.1;;
22308;SDS011;11322;50.858;-1.778;2023-01-15T08:00:34;4.45;;;0.2;;
22308;SDS011;11322;50.858;-1.778;2023-01-15T08:05:34;0.1;;;0.1;;
22308;SDS011;11322;50.858;-1.778;2023-01-15T08:10:34;2.35;;;0.75;;
22308;SDS011;11322;50.858;-1.778;2023-01-15T08:15:37;0.1;;;0.1;;
22308;SDS011;11322;50.858;-1.778;2023-01-15T08:20:34;1.15;;;0.65;;
22308;SDS011;11322;50.858;-1.778;2023-01-15T08:25:34;2.0;;;0.8;;
22308;SDS011;11322;50.858;-1.778;2023-01-15T08:30:34;4.3;;;0.35;;
22308;SDS011;11322;50.858;-1.778;2023-01-15T08:35:34;0.1;;;0.1;;
22308;SDS011;11322;50.858;-1.778;2023-01-15T08:40:34;1.2;;;0.6;;
22308;SDS011;11322;50.858;-1.778;2023-01-15T08:45:34;0.65;;;0.2;;
22308;SDS011;11322;50.858;-1.778;2023-01-15T08:50:34;0.8;;;0.7;;
22308;SDS011;11322;50.858;-1.778;2023-01-15T08:55:34;0.1;;;0.1;;
22308;SDS011;11322;50.858;-1.778;2023-01-15T09:00:34;9.05;;;0.55;;
22308;SDS011;11322;50.858;-1.778;2023-01-15T09:05:35;0.3;;;0.2;;
22308;SDS011;11322;50.858;-1.778;2023-01-15T09:10:34;0.7;;;0.6;;
22308;SDS011;11322;50.858;-1.778;2023-01-15T09:15:34;0.1;;;0.1;;
22308;SDS011;11322;50.858;-1.778;2023-01-15T09:20:34;0.3;;;0.2;;
22308;SDS011;11322;50.858;-1.778;2023-01-15T09:25:34;0.25;;;0.25;;
22308;SDS011;11322;50.858;-1.778;2023-01-15T09:30:34;0.25;;;0.25;;
22308;SDS011;11322;50.858;-1.778;2023-01-15T09:35:34;0.3;;;0.3;;
22308;SDS011;11322;50.858;-1.778;2023-01-15T09:40:38;0.2;;;0.2;;
22308;SDS011;11322;50.858;-1.778;2023-01-15T09:45:36;1.2;;;0.9;;
22308;SDS011;11322;50.858;-1.778;2023-01-15T09:50:38;0.6;;;0.6;;
22308;SDS011;11322;50.858;-1.778;2023-01-15T09:55:34;0.95;;;0.9;;
22308;SDS011;11322;50.858;-1.778;2023-01-15T10:00:34;0.45;;;0.4;;
22308;SDS011;11322;50.858;-1.778;2023-01-15T10:05:34;8.3;;;0.4;;
22308;SDS011;11322;50.858;-1.778;2023-01-15T10:10:34;0.15;;;0.15;;
22308;SDS011;11322;50.858;-1.778;2023-01-15T10:15:35;0.9;;;0.65;;
22308;SDS011;11322;50.858;-1.778;2023-01-15T10:20:38;1.25;;;0.85;;
22308;SDS011;11322;50.858;-1.778;2023-01-15T10:25:35;6.1;;;1.4;;
22308;SDS011;11322;50.858;-1.778;2023-01-15T10:30:35;6.95;;;1.7;;
22308;SDS011;11322;50.858;-1.778;2023-01-15T10:35:36;0.35;;;0.35;;
22308;SDS011;11322;50.858;-1.778;2023-01-15T10:40:39;0.4;;;0.4;;
22308;SDS011;11322;50.858;-1.778;2023-01-15T10:45:34;0.75;;;0.5;;
22308;SDS011;11322;50.858;-1.778;2023-01-15T10:50:34;0.2;;;0.2;;
22308;SDS011;11322;50.858;-1.778;2023-01-15T10:55:35;0.4;;;0.4;;
22308;SDS011;11322;50.858;-1.778;2023-01-15T11:00:34;0.1;;;0.1;;
22308;SDS011;11322;50.858;-1.778;2023-01-15T11:05:34;0.55;;;0.5;;
22308;SDS011;11322;50.858;-1.778;2023-01-15T11:10:34;0.1;;;0.1;;
22308;SDS011;11322;50.858;-1.778;2023-01-15T11:15:34;0.55;;;0.5;;
22308;SDS011;11322;50.858;-1.778;2023-01-15T11:20:34;0.1;;;0.1;;
22308;SDS011;11322;50.858;-1.778;2023-01-15T11:25:34;0.1;;;0.1;;
22308;SDS011;11322;50.858;-1.778;2023-01-15T11:30:34;0.45;;;0.45;;
22308;SDS011;11322;50.858;-1.778;2023-01-15T11:35:34;0.25;;;0.25;;
22308;SDS011;11322;50.858;-1.778;2023-01-15T11:40:34;1.55;;;0.9;;
22308;SDS011;11322;50.858;-1.778;2023-01-15T11:45:34;0.35;;;0.35;;
22308;SDS011;11322;50.858;-1.778;2023-01-15T11:45:47;0.35;;;0.35;;
22308;SDS011;11322;50.858;-1.778;2023-01-15T11:50:34;7.55;;;0.45;;
22308;SDS011;11322;50.858;-1.778;2023-01-15T11:55:34;10.6;;;0.75;;
22308;SDS011;11322;50.858;-1.778;2023-01-15T12:00:34;0.45;;;0.4;;
22308;SDS011;11322;50.858;-1.778;2023-01-15T12:05:34;3.3;;;1.4;;
22308;SDS011;11322;50.858;-1.778;2023-01-15T12:11:53;7.9;;;1.4;;
22308;SDS011;11322;50.858;-1.778;2023-01-15T12:20:37;3.75;;;1.05;;
22308;SDS011;11322;50.858;-1.778;2023-01-15T12:25:36;3.05;;;0.7;;
22308;SDS011;11322;50.858;-1.778;2023-01-15T12:30:36;0.1;;;0.1;;
22308;SDS011;11322;50.858;-1.778;2023-01-15T12:35:34;7.55;;;0.8;;
22308;SDS011;11322;50.858;-1.778;2023-01-15T12:40:37;1.35;;;1.1;;
22308;SDS011;11322;50.858;-1.778;2023-01-15T12:45:36;6.0;;;2.4;;
22308;SDS011;11322;50.858;-1.778;2023-01-15T12:50:37;1.95;;;1.8;;
22308;SDS011;11322;50.858;-1.778;2023-01-15T12:55:35;4.55;;;2.35;;
22308;SDS011;11322;50.858;-1.778;2023-01-15T13:00:34;1.2;;;0.85;;
22308;SDS011;11322;50.858;-1.778;2023-01-15T13:05:35;5.85;;;1.3;;
22308;SDS011;11322;50.858;-1.778;2023-01-15T13:10:34;3.45;;;1.7;;
22308;SDS011;11322;50.858;-1.778;2023-01-15T13:15:34;0.65;;;0.5;;
22308;SDS011;11322;50.858;-1.778;2023-01-15T13:20:38;1.9;;;1.05;;
22308;SDS011;11322;50.858;-1.778;2023-01-15T13:25:39;0.3;;;0.3;;
22308;SDS011;11322;50.858;-1.778;2023-01-15T13:30:41;0.9;;;0.9;;
22308;SDS011;11322;50.858;-1.778;2023-01-15T13:35:34;2.4;;;1.95;;
22308;SDS011;11322;50.858;-1.778;2023-01-15T13:40:34;5.25;;;3.35;;
22308;SDS011;11322;50.858;-1.778;2023-01-15T13:45:34;2.75;;;1.6;;
22308;SDS011;11322;50.858;-1.778;2023-01-15T13:50:34;2.8;;;2.45;;
22308;SDS011;11322;50.858;-1.778;2023-01-15T13:55:34;1.95;;;1.65;;
22308;SDS011;11322;50.858;-1.778;2023-01-15T14:00:34;1.45;;;1.3;;
22308;SDS011;11322;50.858;-1.778;2023-01-15T14:05:34;1.25;;;0.9;;
22308;SDS011;11322;50.858;-1.778;2023-01-15T14:10:35;11.25;;;0.7;;
22308;SDS011;11322;50.858;-1.778;2023-01-15T14:15:36;0.15;;;0.15;;
22308;SDS011;11322;50.858;-1.778;2023-01-15T14:20:37;0.2;;;0.2;;
22308;SDS011;11322;50.858;-1.778;2023-01-15T14:25:39;0.55;;;0.5;;
22308;SDS011;11322;50.858;-1.778;2023-01-15T14:30:38;0.45;;;0.45;;
22308;SDS011;11322;50.858;-1.778;2023-01-15T14:35:34;0.4;;;0.4;;
22308;SDS011;11322;50.858;-1.778;2023-01-15T14:40:34;0.2;;;0.2;;
22308;SDS011;11322;50.858;-1.778;2023-01-15T14:45:34;0.2;;;0.2;;
22308;SDS011;11322;50.858;-1.778;2023-01-15T14:50:35;0.2;;;0.2;;
22308;SDS011;11322;50.858;-1.778;2023-01-15T14:55:36;0.1;;;0.1;;
22308;SDS011;11322;50.858;-1.778;2023-01-15T15:00:34;0.3;;;0.3;;
22308;SDS011;11322;50.858;-1.778;2023-01-15T15:05:34;0.3;;;0.3;;
22308;SDS011;11322;50.858;-1.778;2023-01-15T15:10:35;0.1;;;0.1;;
22308;SDS011;11322;50.858;-1.778;2023-01-15T15:15:35;7.3;;;1.85;;
22308;SDS011;11322;50.858;-1.778;2023-01-15T15:20:37;2.85;;;2.55;;
22308;SDS011;11322;50.858;-1.778;2023-01-15T15:25:34;14.25;;;5.65;;
22308;SDS011;11322;50.858;-1.778;2023-01-15T15:30:34;20.45;;;8.6;;
22308;SDS011;11322;50.858;-1.778;2023-01-15T15:35:34;11.05;;;5.6;;
22308;SDS011;11322;50.858;-1.778;2023-01-15T15:40:34;29.3;;;16.0;;
22308;SDS011;11322;50.858;-1.778;2023-01-15T15:45:34;14.0;;;8.5;;
22308;SDS011;11322;50.858;-1.778;2023-01-15T15:50:34;4.8;;;4.15;;
22308;SDS011;11322;50.858;-1.778;2023-01-15T15:55:35;5.65;;;3.95;;
22308;SDS011;11322;50.858;-1.778;2023-01-15T16:00:37;4.4;;;3.85;;
22308;SDS011;11322;50.858;-1.778;2023-01-15T16:05:34;3.05;;;2.8;;
22308;SDS011;11322;50.858;-1.778;2023-01-15T16:10:34;3.85;;;2.25;;
22308;SDS011;11322;50.858;-1.778;2023-01-15T16:15:35;3.95;;;2.9;;
22308;SDS011;11322;50.858;-1.778;2023-01-15T16:20:34;5.0;;;2.5;;
22308;SDS011;11322;50.858;-1.778;2023-01-15T16:25:34;7.55;;;2.5;;
22308;SDS011;11322;50.858;-1.778;2023-01-15T16:30:34;3.0;;;2.0;;
22308;SDS011;11322;50.858;-1.778;2023-01-15T16:35:34;0.85;;;0.7;;
22308;SDS011;11322;50.858;-1.778;2023-01-15T16:40:35;1.45;;;1.4;;
22308;SDS011;11322;50.858;-1.778;2023-01-15T16:45:34;2.0;;;1.55;;
22308;SDS011;11322;50.858;-1.778;2023-01-15T16:50:34;2.65;;;1.0;;
22308;SDS011;11322;50.858;-1.778;2023-01-15T16:55:35;5.3;;;2.2;;
22308;SDS011;11322;50.858;-1.778;2023-01-15T17:00:34;3.4;;;1.5;;
22308;SDS011;11322;50.858;-1.778;2023-01-15T17:05:34;4.95;;;1.9;;
22308;SDS011;11322;50.858;-1.778;2023-01-15T17:10:34;3.9;;;1.3;;
22308;SDS011;11322;50.858;-1.778;2023-01-15T17:15:36;4.3;;;1.7;;
22308;SDS011;11322;50.858;-1.778;2023-01-15T17:20:34;2.6;;;1.45;;
22308;SDS011;11322;50.858;-1.778;2023-01-15T17:25:34;1.9;;;1.8;;
22308;SDS011;11322;50.858;-1.778;2023-01-15T17:30:34;3.9;;;1.5;;
22308;SDS011;11322;50.858;-1.778;2023-01-15T17:35:34;2.3;;;1.8;;
22308;SDS011;11322;50.858;-1.778;2023-01-15T17:40:34;4.0;;;1.6;;
22308;SDS011;11322;50.858;-1.778;2023-01-15T17:45:34;1.3;;;1.2;;
22308;SDS011;11322;50.858;-1.778;2023-01-15T17:50:34;1.15;;;0.5;;
22308;SDS011;11322;50.858;-1.778;2023-01-15T17:55:34;4.8;;;1.65;;
22308;SDS011;11322;50.858;-1.778;2023-01-15T18:00:34;5.15;;;2.85;;
22308;SDS011;11322;50.858;-1.778;2023-01-15T18:05:34;3.85;;;2.8;;
22308;SDS011;11322;50.858;-1.778;2023-01-15T18:10:34;3.8;;;2.55;;
22308;SDS011;11322;50.858;-1.778;2023-01-15T18:15:34;2.7;;;1.6;;
22308;SDS011;11322;50.858;-1.778;2023-01-15T18:20:34;2.8;;;1.9;;
22308;SDS011;11322;50.858;-1.778;2023-01-15T18:25:34;3.25;;;2.55;;
22308;SDS011;11322;50.858;-1.778;2023-01-15T18:30:34;3.15;;;1.9;;
22308;SDS011;11322;50.858;-1.778;2023-01-15T18:35:34;1.35;;;1.3;;
22308;SDS011;11322;50.858;-1.778;2023-01-15T18:40:34;3.35;;;1.8;;
22308;SDS011;11322;50.858;-1.778;2023-01-15T18:45:34;1.0;;;0.95;;
22308;SDS011;11322;50.858;-1.778;2023-01-15T18:50:34;3.3;;;1.2;;
22308;SDS011;11322;50.858;-1.778;2023-01-15T18:55:34;2.05;;;1.55;;
22308;SDS011;11322;50.858;-1.778;2023-01-15T19:00:34;3.15;;;2.1;;
22308;SDS011;11322;50.858;-1.778;2023-01-15T19:05:34;4.45;;;2.9;;
22308;SDS011;11322;50.858;-1.778;2023-01-15T19:10:34;4.65;;;3.45;;
22308;SDS011;11322;50.858;-1.778;2023-01-15T19:15:34;4.2;;;2.05;;
22308;SDS011;11322;50.858;-1.778;2023-01-15T19:20:35;2.0;;;1.85;;
22308;SDS011;11322;50.858;-1.778;2023-01-15T19:25:35;6.5;;;3.95;;
22308;SDS011;11322;50.858;-1.778;2023-01-15T19:30:35;3.75;;;2.45;;
22308;SDS011;11322;50.858;-1.778;2023-01-15T19:35:34;12.8;;;3.85;;
22308;SDS011;11322;50.858;-1.778;2023-01-15T19:40:34;1.85;;;1.7;;
22308;SDS011;11322;50.858;-1.778;2023-01-15T19:45:34;4.65;;;2.65;;
22308;SDS011;11322;50.858;-1.778;2023-01-15T19:50:34;16.7;;;2.6;;
22308;SDS011;11322;50.858;-1.778;2023-01-15T19:55:34;3.9;;;3.4;;
22308;SDS011;11322;50.858;-1.778;2023-01-15T20:00:35;8.7;;;2.5;;
22308;SDS011;11322;50.858;-1.778;2023-01-15T20:05:34;6.7;;;5.7;;
22308;SDS011;11322;50.858;-1.778;2023-01-15T20:10:34;6.9;;;4.1;;
22308;SDS011;11322;50.858;-1.778;2023-01-15T20:15:35;11.9;;;4.45;;
22308;SDS011;11322;50.858;-1.778;2023-01-15T20:20:34;6.05;;;4.45;;
22308;SDS011;11322;50.858;-1.778;2023-01-15T20:25:34;8.85;;;4.65;;
22308;SDS011;11322;50.858;-1.778;2023-01-15T20:30:34;5.1;;;3.5;;
22308;SDS011;11322;50.858;-1.778;2023-01-15T20:35:34;4.05;;;3.25;;
22308;SDS011;11322;50.858;-1.778;2023-01-15T20:40:34;8.8;;;4.15;;
22308;SDS011;11322;50.858;-1.778;2023-01-15T20:45:34;5.45;;;2.15;;
22308;SDS011;11322;50.858;-1.778;2023-01-15T20:50:34;9.7;;;5.05;;
22308;SDS011;11322;50.858;-1.778;2023-01-15T20:55:34;6.9;;;5.15;;
22308;SDS011;11322;50.858;-1.778;2023-01-15T21:00:34;4.8;;;3.1;;
22308;SDS011;11322;50.858;-1.778;2023-01-15T21:05:34;2.55;;;2.0;;
22308;SDS011;11322;50.858;-1.778;2023-01-15T21:10:34;3.4;;;2.5;;
22308;SDS011;11322;50.858;-1.778;2023-01-15T21:15:34;11.2;;;4.6;;
22308;SDS011;11322;50.858;-1.778;2023-01-15T21:20:34;9.75;;;4.1;;
22308;SDS011;11322;50.858;-1.778;2023-01-15T21:25:34;6.1;;;2.55;;
22308;SDS011;11322;50.858;-1.778;2023-01-15T21:30:34;4.4;;;3.85;;
22308;SDS011;11322;50.858;-1.778;2023-01-15T21:35:36;6.4;;;3.5;;
22308;SDS011;11322;50.858;-1.778;2023-01-15T21:40:34;3.3;;;2.4;;
22308;SDS011;11322;50.858;-1.778;2023-01-15T21:45:34;10.8;;;2.45;;
22308;SDS011;11322;50.858;-1.778;2023-01-15T21:50:35;1.25;;;0.45;;
22308;SDS011;11322;50.858;-1.778;2023-01-15T21:55:34;0.2;;;0.2;;
22308;SDS011;11322;50.858;-1.778;2023-01-15T22:00:34;6.0;;;1.9;;
22308;SDS011;11322;50.858;-1.778;2023-01-15T22:05:34;1.3;;;1.2;;
22308;SDS011;11322;50.858;-1.778;2023-01-15T22:10:34;1.05;;;0.75;;
22308;SDS011;11322;50.858;-1.778;2023-01-15T22:15:34;5.25;;;1.2;;
22308;SDS011;11322;50.858;-1.778;2023-01-15T22:20:34;0.8;;;0.8;;
22308;SDS011;11322;50.858;-1.778;2023-01-15T22:25:34;1.55;;;0.6;;
22308;SDS011;11322;50.858;-1.778;2023-01-15T22:30:34;1.45;;;0.3;;
22308;SDS011;11322;50.858;-1.778;2023-01-15T22:35:34;1.2;;;0.95;;
22308;SDS011;11322;50.858;-1.778;2023-01-15T22:40:34;1.6;;;0.95;;
22308;SDS011;11322;50.858;-1.778;2023-01-15T22:45:34;4.5;;;0.8;;
22308;SDS011;11322;50.858;-1.778;2023-01-15T22:50:34;0.1;;;0.1;;
22308;SDS011;11322;50.858;-1.778;2023-01-15T22:55:34;4.3;;;1.25;;
22308;SDS011;11322;50.858;-1.778;2023-01-15T23:00:34;0.45;;;0.35;;
22308;SDS011;11322;50.858;-1.778;2023-01-15T23:05:34;2.35;;;1.35;;
22308;SDS011;11322;50.858;-1.778;2023-01-15T23:10:34;3.4;;;0.5;;
22308;SDS011;11322;50.858;-1.778;2023-01-15T23:15:34;1.25;;;0.15;;
22308;SDS011;11322;50.858;-1.778;2023-01-15T23:20:34;0.2;;;0.2;;
22308;SDS011;11322;50.858;-1.778;2023-01-15T23:25:34;0.3;;;0.3;;
22308;SDS011;11322;50.858;-1.778;2023-01-15T23:30:34;1.5;;;0.65;;
22308;SDS011;11322;50.858;-1.778;2023-01-15T23:35:34;3.05;;;1.1;;
22308;SDS011;11322;50.858;-1.778;2023-01-15T23:40:37;0.3;;;0.3;;
22308;SDS011;11322;50.858;-1.778;2023-01-15T23:45:34;0.2;;;0.2;;
22308;SDS011;11322;50.858;-1.778;2023-01-15T23:50:34;0.5;;;0.5;;
22308;SDS011;11322;50.858;-1.778;2023-01-15T23:55:34;1.0;;;0.9;;
